Time;durP1;ratioP1;P1;durP2;ratioP2;P2;SDS_P1;SDS_P2;PMS_P1;PMS_P2;Temp;Humidity;BMP_temperature;BMP_pressure;BME280_temperature;BME280_humidity;BME280_pressure;Samples;Min_cycle;Max_cycle;Signal;HPM_P1;HPM_P2
2022/08/17 00:00:23;;;;;;;11.57;7.43;;;19.80;99.90;;;;;;5051395;28;20390;-50
2022/08/17 00:03:08;;;;;;;12.20;7.20;;;19.70;99.90;;;;;;5050897;28;20431;-50
2022/08/17 00:05:45;;;;;;;13.57;7.90;;;19.70;99.90;;;;;;5033310;28;20417;-51
2022/08/17 00:08:13;;;;;;;12.70;7.80;;;19.70;1.00;;;;;;5051488;28;20536;-51
2022/08/17 00:10:40;;;;;;;14.93;8.23;;;19.70;1.00;;;;;;5051022;28;20425;-55
2022/08/17 00:13:14;;;;;;;15.32;8.20;;;19.60;1.00;;;;;;5051706;28;20392;-51
2022/08/17 00:15:40;;;;;;;13.35;7.85;;;19.60;1.00;;;;;;5050488;28;20959;-55
2022/08/17 00:18:06;;;;;;;12.15;7.70;;;19.60;1.00;;;;;;5051406;28;20401;-51
2022/08/17 00:20:32;;;;;;;14.03;8.33;;;19.60;1.00;;;;;;5051110;28;20862;-50
2022/08/17 00:23:03;;;;;;;12.60;8.27;;;19.60;1.00;;;;;;5050227;28;20382;-50
2022/08/17 00:25:29;;;;;;;14.23;8.25;;;19.70;99.90;;;;;;5050719;28;20433;-50
2022/08/17 00:27:55;;;;;;;13.47;7.90;;;19.60;99.90;;;;;;5050135;28;20893;-51
2022/08/17 00:30:21;;;;;;;13.43;8.60;;;19.50;99.90;;;;;;5051202;28;20765;-50
2022/08/17 00:32:48;;;;;;;12.70;7.70;;;19.60;99.90;;;;;;5050441;28;20424;-50
2022/08/17 00:35:16;;;;;;;15.23;8.80;;;19.60;1.00;;;;;;5050912;28;20385;-50
2022/08/17 00:37:42;;;;;;;15.25;8.50;;;19.60;1.00;;;;;;5049734;28;20504;-51
2022/08/17 00:40:12;;;;;;;16.42;9.45;;;19.60;1.00;;;;;;5050718;28;20420;-51
2022/08/17 00:42:38;;;;;;;17.77;9.60;;;19.60;1.00;;;;;;5050642;28;20473;-56
2022/08/17 00:45:06;;;;;;;15.95;9.32;;;19.60;59.70;;;;;;5050222;28;20447;-51
2022/08/17 00:47:32;;;;;;;15.23;9.35;;;19.60;1.00;;;;;;5050829;28;20425;-51
2022/08/17 00:49:57;;;;;;;14.10;8.57;;;19.60;45.40;;;;;;5050102;28;20405;-52
2022/08/17 00:52:29;;;;;;;14.63;8.77;;;19.60;1.00;;;;;;5050282;28;20479;-52
2022/08/17 00:54:55;;;;;;;15.45;8.85;;;19.50;99.90;;;;;;5049488;28;20458;-51
2022/08/17 00:57:31;;;;;;;15.90;9.20;;;19.40;1.00;;;;;;5050258;28;20496;-51
2022/08/17 01:00:11;;;;;;;17.30;9.55;;;19.40;1.00;;;;;;5049858;28;20398;-50
2022/08/17 01:02:41;;;;;;;16.45;9.50;;;19.50;99.90;;;;;;5050531;28;20808;-55
2022/08/17 01:05:11;;;;;;;15.57;9.82;;;18.80;99.90;;;;;;5050448;28;20415;-50
2022/08/17 01:07:37;;;;;;;15.05;8.57;;;19.50;1.00;;;;;;5049645;28;20402;-56
2022/08/17 01:10:07;;;;;;;14.90;8.52;;;19.40;82.40;;;;;;5050216;28;20383;-50
2022/08/17 01:12:35;;;;;;;12.23;8.20;;;19.40;1.00;;;;;;5050181;28;20402;-50
2022/08/17 01:15:02;;;;;;;14.60;8.80;;;19.40;1.00;;;;;;5049240;28;20489;-50
2022/08/17 01:17:28;;;;;;;15.07;9.00;;;19.50;99.90;;;;;;5050475;28;20402;-51
2022/08/17 01:19:54;;;;;;;14.77;8.82;;;19.50;99.90;;;;;;5049206;28;20693;-50
2022/08/17 01:22:23;;;;;;;14.50;8.40;;;19.60;99.90;;;;;;5050195;28;20381;-51
2022/08/17 01:24:57;;;;;;;14.90;8.02;;;19.70;1.00;;;;;;5049329;28;20417;-51
2022/08/17 01:27:25;;;;;;;14.50;9.10;;;19.70;1.00;;;;;;5039914;28;20422;-50
2022/08/17 01:29:57;;;;;;;15.68;8.80;;;19.70;1.00;;;;;;5048524;28;20409;-51
2022/08/17 01:32:24;;;;;;;14.43;8.37;;;19.70;1.00;;;;;;5050071;28;20389;-50
2022/08/17 01:34:51;;;;;;;13.80;8.43;;;19.60;1.00;;;;;;5048834;28;20369;-52
2022/08/17 01:37:20;;;;;;;14.90;9.30;;;19.60;1.00;;;;;;5049586;28;20409;-51
2022/08/17 01:39:54;;;;;;;14.20;8.80;;;19.60;1.00;;;;;;5049096;28;20381;-50
2022/08/17 01:42:24;;;;;;;15.63;8.80;;;19.50;9.10;;;;;;5049221;28;20468;-51
2022/08/17 01:44:55;;;;;;;15.10;8.70;;;19.50;14.50;;;;;;5048635;28;20385;-52
2022/08/17 01:47:21;;;;;;;14.60;8.88;;;19.50;4.20;;;;;;5049565;28;20424;-50
2022/08/17 01:49:47;;;;;;;13.40;8.90;;;19.50;1.00;;;;;;5049004;28;20412;-50
2022/08/17 01:52:14;;;;;;;14.18;8.40;;;19.40;99.90;;;;;;5049252;28;20860;-50
2022/08/17 01:54:44;;;;;;;13.17;8.10;;;19.30;1.00;;;;;;5048959;28;20493;-55
2022/08/17 01:57:10;;;;;;;12.73;8.52;;;19.20;1.00;;;;;;5066632;28;20379;-50
2022/08/17 01:59:36;;;;;;;14.63;8.68;;;19.00;99.90;;;;;;5059934;28;20445;-50
2022/08/17 02:02:03;;;;;;;14.50;8.50;;;19.00;1.00;;;;;;5048841;28;20405;-50
2022/08/17 02:04:30;;;;;;;17.45;9.10;;;19.00;1.00;;;;;;5049309;28;20405;-52
2022/08/17 02:06:57;;;;;;;14.68;8.48;;;19.00;1.00;;;;;;5048634;28;20401;-50
2022/08/17 02:09:24;;;;;;;15.70;8.65;;;19.60;99.90;;;;;;5049189;28;20409;-50
2022/08/17 02:11:50;;;;;;;15.18;8.88;;;18.70;1.00;;;;;;5048699;28;20511;-50
2022/08/17 02:14:16;;;;;;;14.47;8.80;;;18.50;99.90;;;;;;5049230;28;20401;-50
2022/08/17 02:16:42;;;;;;;17.63;9.32;;;18.50;1.00;;;;;;5048672;28;20374;-54
2022/08/17 02:19:11;;;;;;;14.87;9.03;;;18.40;1.00;;;;;;5049672;28;20818;-50
2022/08/17 02:21:38;;;;;;;17.75;9.43;;;18.30;1.00;;;;;;5053397;28;20447;-51
2022/08/17 02:24:07;;;;;;;16.50;9.60;;;18.20;99.90;;;;;;5053150;28;20440;-50
2022/08/17 02:26:33;;;;;;;16.15;9.90;;;18.20;85.30;;;;;;5053062;28;20413;-50
2022/08/17 02:28:59;;;;;;;15.18;9.77;;;18.20;99.90;;;;;;5052384;28;20405;-51
2022/08/17 02:31:25;;;;;;;17.23;10.23;;;18.20;99.90;;;;;;5053444;28;20397;-50
2022/08/17 02:33:50;;;;;;;18.80;9.95;;;18.30;99.90;;;;;;5052713;28;20377;-50
2022/08/17 02:36:16;;;;;;;16.85;10.60;;;18.20;99.90;;;;;;5053441;28;20883;-50
2022/08/17 02:38:42;;;;;;;16.87;10.20;;;18.20;99.90;;;;;;5052583;28;20825;-55
2022/08/17 02:41:08;;;;;;;16.10;10.20;;;18.30;99.90;;;;;;5053105;28;20471;-50
2022/08/17 02:43:34;;;;;;;15.68;10.10;;;18.40;1.00;;;;;;5053532;28;20416;-50
2022/08/17 02:46:00;;;;;;;15.88;9.02;;;18.50;1.00;;;;;;5051997;28;20413;-50
2022/08/17 02:48:26;;;;;;;15.93;9.70;;;18.60;1.00;;;;;;5052920;28;20417;-50
2022/08/17 02:50:51;;;;;;;16.08;9.80;;;18.70;1.00;;;;;;5052144;28;20393;-51
2022/08/17 02:53:17;;;;;;;16.93;9.97;;;18.60;1.00;;;;;;5052978;28;20396;-50
2022/08/17 02:55:43;;;;;;;17.90;9.73;;;18.40;99.90;;;;;;5051435;28;20405;-55
2022/08/17 02:58:09;;;;;;;17.25;10.70;;;18.50;99.90;;;;;;5052723;28;20535;-50
2022/08/17 03:00:39;;;;;;;17.35;10.10;;;18.60;1.00;;;;;;5052943;28;20837;-50
2022/08/17 03:03:06;;;;;;;16.17;10.95;;;18.70;99.90;;;;;;5052546;28;20385;-50
2022/08/17 03:05:35;;;;;;;16.63;10.05;;;18.70;99.90;;;;;;5052636;28;20409;-50
2022/08/17 03:08:00;;;;;;;17.33;10.40;;;18.60;1.00;;;;;;5051708;28;20434;-50
2022/08/17 03:10:28;;;;;;;16.43;9.97;;;18.50;1.00;;;;;;5052884;28;20824;-51
2022/08/17 03:12:54;;;;;;;16.73;10.20;;;18.50;1.00;;;;;;5051772;28;20373;-50
2022/08/17 03:15:23;;;;;;;18.30;10.13;;;18.40;99.90;;;;;;5052487;28;20794;-50
2022/08/17 03:17:49;;;;;;;17.92;10.40;;;18.50;1.00;;;;;;5051650;28;20386;-52
2022/08/17 03:20:16;;;;;;;17.70;10.35;;;18.60;1.00;;;;;;5052412;28;20443;-50
2022/08/17 03:22:45;;;;;;;15.05;10.13;;;18.60;1.00;;;;;;5051174;28;20865;-55
2022/08/17 03:25:14;;;;;;;17.42;9.70;;;18.50;1.00;;;;;;5052052;28;20882;-50
2022/08/17 03:27:39;;;;;;;15.98;9.80;;;18.60;99.90;;;;;;5051792;28;20402;-55
2022/08/17 03:30:07;;;;;;;17.60;10.00;;;18.60;1.00;;;;;;5051528;28;20436;-50
2022/08/17 03:32:39;;;;;;;14.73;9.53;;;18.60;1.00;;;;;;5052264;28;20390;-50
2022/08/17 03:35:05;;;;;;;15.73;9.63;;;18.60;1.00;;;;;;5051165;28;20373;-50
2022/08/17 03:37:30;;;;;;;15.50;9.00;;;18.60;99.90;;;;;;5052129;28;20867;-50
2022/08/17 03:39:56;;;;;;;15.90;9.73;;;18.50;99.90;;;;;;5051355;28;20468;-50
2022/08/17 03:42:25;;;;;;;14.35;9.73;;;18.60;99.90;;;;;;5051380;28;20755;-51
2022/08/17 03:44:53;;;;;;;16.65;9.77;;;18.60;13.10;;;;;;5050857;28;20846;-51
2022/08/17 03:58:18;;;;;;;20.13;9.77;;;18.70;1.00;;;;;;5051955;28;20480;-50
2022/08/17 04:00:45;;;;;;;17.58;10.63;;;18.80;1.00;;;;;;5050292;28;20472;-56
2022/08/17 04:03:12;;;;;;;15.30;9.80;;;18.80;1.00;;;;;;5051421;28;20462;-51
2022/08/17 04:05:38;;;;;;;14.93;9.30;;;18.80;1.00;;;;;;5051222;28;20502;-50
2022/08/17 04:08:04;;;;;;;14.05;9.10;;;18.70;99.90;;;;;;5050670;28;20378;-50
2022/08/17 04:10:29;;;;;;;16.20;10.20;;;18.70;99.90;;;;;;5051324;28;20425;-50
2022/08/17 04:12:57;;;;;;;16.17;9.43;;;18.70;99.90;;;;;;5050459;28;20401;-50
2022/08/17 04:15:23;;;;;;;17.02;9.43;;;19.00;99.90;;;;;;5051288;28;20448;-52
2022/08/17 04:17:49;;;;;;;15.35;9.93;;;18.80;1.00;;;;;;5050081;28;20385;-52
2022/08/17 04:20:17;;;;;;;14.02;9.40;;;18.70;1.00;;;;;;5050807;28;20386;-50
2022/08/17 04:22:57;;;;;;;14.90;9.18;;;18.80;1.00;;;;;;5050847;28;20417;-55
2022/08/17 04:25:23;;;;;;;17.80;8.85;;;18.80;1.00;;;;;;5050864;28;20401;-51
2022/08/17 04:27:49;;;;;;;15.10;9.30;;;18.80;99.90;;;;;;5050324;28;20497;-50
2022/08/17 04:30:15;;;;;;;15.07;8.80;;;18.80;99.90;;;;;;5051581;28;20374;-51
2022/08/17 04:32:55;;;;;;;14.90;9.23;;;18.80;99.90;;;;;;5050945;28;20751;-54
2022/08/17 04:35:26;;;;;;;16.60;9.57;;;18.40;99.90;;;;;;5050035;28;20758;-50
2022/08/17 04:37:52;;;;;;;16.38;9.05;;;18.40;99.90;;;;;;5050295;28;20915;-50
2022/08/17 04:43:07;;;;;;;14.82;9.23;;;18.50;99.90;;;;;;5049549;28;20427;-50
2022/08/17 04:45:33;;;;;;;15.95;9.48;;;18.50;1.00;;;;;;5050421;28;20525;-50
2022/08/17 04:47:59;;;;;;;15.85;8.68;;;18.60;1.00;;;;;;5050065;28;20389;-50
2022/08/17 04:50:25;;;;;;;16.10;9.63;;;18.80;99.90;;;;;;5049751;28;20400;-50
2022/08/17 04:52:51;;;;;;;15.23;8.75;;;19.00;1.00;;;;;;5049647;28;20381;-51
2022/08/17 04:55:17;;;;;;;13.50;9.07;;;19.00;1.00;;;;;;5050404;28;20463;-50
2022/08/17 04:57:42;;;;;;;17.08;8.82;;;19.00;99.90;;;;;;5050284;28;20438;-55
2022/08/17 05:00:09;;;;;;;16.92;9.80;;;18.90;1.00;;;;;;5049549;28;20464;-51
2022/08/17 05:02:47;;;;;;;14.27;8.30;;;19.30;99.90;;;;;;5050469;28;20472;-50
2022/08/17 05:05:19;;;;;;;13.45;8.60;;;19.90;99.90;;;;;;5049895;28;20476;-50
2022/08/17 05:07:44;;;;;;;13.40;8.10;;;19.90;1.00;;;;;;5049650;28;20898;-56
2022/08/17 05:10:10;;;;;;;14.32;8.10;;;20.20;1.00;;;;;;5050045;28;20369;-50
2022/08/17 05:12:35;;;;;;;15.00;8.60;;;20.50;99.90;;;;;;5049803;28;20381;-51
2022/08/17 05:15:01;;;;;;;15.53;8.67;;;20.70;1.00;;;;;;5049201;28;20890;-50
2022/08/17 05:17:26;;;;;;;14.03;8.40;;;21.00;1.00;;;;;;5049905;28;20385;-50
2022/08/17 05:25:14;;;;;;;15.40;8.13;;;21.80;99.90;;;;;;5188253;22;20429;-51
2022/08/17 05:27:39;;;;;;;12.88;7.88;;;21.90;99.90;;;;;;5009979;28;20416;-51
2022/08/17 05:30:05;;;;;;;14.85;8.68;;;22.10;43.40;;;;;;5017045;28;20413;-49
2022/08/17 05:32:32;;;;;;;12.93;8.02;;;;;;;;;;5008419;28;20427;-49
2022/08/17 05:35:00;;;;;;;15.40;8.10;;;23.30;99.90;;;;;;5024825;28;20870;-49
2022/08/17 05:37:26;;;;;;;13.02;7.93;;;;;;;;;;5027749;28;20391;-49
2022/08/17 05:39:53;;;;;;;12.30;8.18;;;;;;;;;;5028174;28;20402;-50
2022/08/17 05:42:19;;;;;;;13.03;8.73;;;25.30;49.30;;;;;;5028472;28;20418;-52
2022/08/17 05:44:44;;;;;;;12.80;8.10;;;26.10;99.90;;;;;;5027846;28;20415;-49
2022/08/17 05:47:10;;;;;;;13.90;8.48;;;27.30;26.00;;;;;;5028302;28;20407;-50
2022/08/17 05:49:35;;;;;;;14.23;8.65;;;28.40;1.00;;;;;;5019807;28;20415;-49
2022/08/17 05:52:06;;;;;;;13.40;9.20;;;29.30;1.00;;;;;;5025250;28;20463;-49
2022/08/17 05:54:48;;;;;;;14.15;9.25;;;;;;;;;;5027153;28;20444;-49
2022/08/17 05:57:36;;;;;;;12.10;8.30;;;;;;;;;;5028532;28;20391;-50
2022/08/17 06:00:21;;;;;;;11.98;7.88;;;;;;;;;;5014160;28;20478;-51
2022/08/17 06:02:53;;;;;;;11.07;8.63;;;;;;;;;;5027620;28;20470;-50
2022/08/17 06:05:24;;;;;;;10.60;8.80;;;;;;;;;;5020420;28;20403;-52
2022/08/17 06:08:06;;;;;;;10.70;9.50;;;;;;;;;;5027255;28;20398;-50
2022/08/17 06:10:59;;;;;;;13.03;9.97;;;33.60;1.00;;;;;;5023593;28;20403;-50
2022/08/17 06:14:08;;;;;;;11.50;8.77;;;33.00;1.00;;;;;;5026051;28;20740;-52
2022/08/17 06:16:38;;;;;;;12.23;7.00;;;33.10;1.00;;;;;;5014091;28;20486;-50
2022/08/17 06:19:09;;;;;;;11.82;7.20;;;33.20;1.00;;;;;;5027914;28;20804;-50
2022/08/17 06:21:41;;;;;;;13.00;6.50;;;32.80;1.00;;;;;;5027138;28;20379;-51
2022/08/17 06:24:48;;;;;;;10.95;6.50;;;32.50;1.00;;;;;;5014122;28;20395;-50
2022/08/17 06:27:38;;;;;;;11.23;6.70;;;32.60;1.00;;;;;;4985186;28;20603;-50
2022/08/17 06:30:10;;;;;;;10.63;6.55;;;31.90;1.00;;;;;;4985879;28;20413;-50
2022/08/17 06:32:42;;;;;;;11.57;6.47;;;32.00;1.00;;;;;;5010103;28;20418;-50
2022/08/17 06:35:09;;;;;;;11.73;6.67;;;;;;;;;;5026965;28;20456;-50
2022/08/17 06:37:49;;;;;;;12.05;7.50;;;33.20;1.00;;;;;;5024089;28;20463;-50
2022/08/17 06:40:33;;;;;;;12.52;7.53;;;33.80;1.00;;;;;;5024631;28;20485;-51
2022/08/17 06:43:11;;;;;;;10.48;7.20;;;34.10;1.00;;;;;;5025691;28;20435;-50
2022/08/17 06:45:49;;;;;;;12.00;7.50;;;33.90;1.00;;;;;;5026842;28;20419;-50
2022/08/17 06:48:51;;;;;;;10.87;7.10;;;33.20;1.00;;;;;;5028060;28;20427;-49
2022/08/17 06:51:38;;;;;;;10.00;6.78;;;32.70;1.00;;;;;;5022946;28;20910;-50
2022/08/17 06:54:12;;;;;;;14.63;7.60;;;32.30;1.00;;;;;;5017487;28;20468;-51
2022/08/17 06:56:43;;;;;;;13.23;7.07;;;32.30;1.00;;;;;;5026472;28;20444;-50
2022/08/17 06:59:13;;;;;;;11.32;7.07;;;32.30;1.00;;;;;;5027276;28;20450;-50
2022/08/17 07:01:40;;;;;;;11.13;6.63;;;32.10;1.00;;;;;;5027036;28;20393;-50
2022/08/17 07:04:06;;;;;;;11.45;7.40;;;;;;;;;;5024375;28;20508;-50
2022/08/17 07:06:35;;;;;;;11.55;7.95;;;;;;;;;;5025933;28;20893;-50
2022/08/17 07:09:27;;;;;;;14.40;7.07;;;;;;;;;;5030248;28;20394;-49
2022/08/17 07:11:57;;;;;;;11.30;6.50;;;;;;;;;;5021276;28;20492;-49
2022/08/17 07:14:35;;;;;;;12.57;6.80;;;;;;;;;;5026924;28;20395;-54
2022/08/17 07:17:02;;;;;;;10.50;6.20;;;;;;;;;;5029371;28;20414;-50
2022/08/17 07:19:31;;;;;;;13.50;6.15;;;;;;;;;;5026959;28;20450;-49
2022/08/17 07:21:57;;;;;;;9.98;6.75;;;;;;;;;;5029569;28;20387;-50
2022/08/17 07:24:32;;;;;;;11.85;5.97;;;;;;;;;;5030067;28;20395;-54
2022/08/17 07:27:05;;;;;;;10.65;6.53;;;;;;;;;;5029772;28;20419;-50
2022/08/17 07:29:37;;;;;;;10.18;6.10;;;35.20;1.00;;;;;;5027921;28;20442;-50
2022/08/17 07:32:02;;;;;;;12.77;8.98;;;35.50;1.00;;;;;;5029302;28;20388;-50
2022/08/17 07:34:28;;;;;;;12.15;7.68;;;36.10;1.00;;;;;;5029689;28;20723;-50
2022/08/17 07:37:04;;;;;;;10.00;7.70;;;36.30;1.00;;;;;;5028353;28;20808;-51
2022/08/17 07:39:30;;;;;;;10.52;7.95;;;35.90;1.00;;;;;;5027649;28;20721;-50
2022/08/17 07:42:02;;;;;;;10.27;6.43;;;35.50;1.00;;;;;;5030432;28;20868;-49
2022/08/17 07:44:28;;;;;;;12.85;8.20;;;34.80;1.00;;;;;;5029715;28;20379;-50
2022/08/17 07:49:45;;;;;;;16.58;7.28;;;34.10;1.00;;;;;;5027693;28;20568;-50
2022/08/17 07:52:29;;;;;;;11.30;6.72;;;34.20;1.00;;;;;;5019305;28;20509;-50
2022/08/17 07:54:55;;;;;;;15.45;7.07;;;35.10;1.00;;;;;;5029718;28;20489;-50
2022/08/17 07:57:28;;;;;;;9.77;6.30;;;35.70;1.00;;;;;;5029528;28;20569;-54
2022/08/17 07:59:59;;;;;;;12.47;6.23;;;36.30;1.00;;;;;;5029578;28;20609;-50
2022/08/17 08:02:37;;;;;;;9.63;6.10;;;36.80;1.00;;;;;;5027272;28;20404;-54
2022/08/17 08:05:07;;;;;;;12.55;6.65;;;36.00;1.00;;;;;;5026926;28;20422;-50
2022/08/17 08:07:54;;;;;;;9.90;5.80;;;35.90;1.00;;;;;;5027008;28;20449;-50
2022/08/17 08:10:29;;;;;;;10.13;6.00;;;35.90;1.00;;;;;;5027284;28;20433;-49
2022/08/17 08:13:20;;;;;;;11.90;7.38;;;36.90;1.00;;;;;;5027874;28;20498;-50
2022/08/17 08:15:54;;;;;;;10.80;7.00;;;38.60;1.00;;;;;;5027934;28;20464;-50
2022/08/17 08:18:34;;;;;;;12.10;6.75;;;39.40;1.00;;;;;;5026936;28;20393;-49
2022/08/17 08:21:08;;;;;;;9.43;6.30;;;38.20;1.00;;;;;;5028235;28;20419;-49
2022/08/17 08:23:51;;;;;;;9.35;6.28;;;35.90;1.00;;;;;;5028784;28;20387;-50
2022/08/17 08:26:47;;;;;;;11.60;8.65;;;34.50;1.00;;;;;;5028931;28;20426;-49
2022/08/17 08:29:36;;;;;;;10.75;7.95;;;34.70;1.00;;;;;;5029218;28;20425;-50
2022/08/17 08:32:15;;;;;;;12.02;8.05;;;36.60;1.00;;;;;;5026203;28;20426;-49
2022/08/17 08:34:55;;;;;;;10.98;7.63;;;37.00;1.00;;;;;;5024774;28;20398;-50
2022/08/17 08:37:36;;;;;;;11.40;7.50;;;36.10;1.00;;;;;;5027623;28;20418;-50
2022/08/17 08:40:26;;;;;;;10.68;7.80;;;35.80;1.00;;;;;;5021888;28;20422;-51
2022/08/17 08:43:18;;;;;;;10.57;7.40;;;35.80;1.00;;;;;;5026652;28;20768;-51
2022/08/17 08:46:03;;;;;;;9.02;6.60;;;35.10;1.00;;;;;;5003752;28;20422;-50
2022/08/17 08:48:46;;;;;;;10.02;7.35;;;33.60;1.00;;;;;;5026460;28;20499;-50
2022/08/17 08:51:30;;;;;;;11.30;8.63;;;31.90;1.00;;;;;;5026324;28;20403;-49
2022/08/17 08:54:19;;;;;;;14.68;9.32;;;30.70;1.00;;;;;;5026742;28;20480;-50
2022/08/17 08:57:00;;;;;;;10.23;5.30;;;29.90;1.00;;;;;;5023122;28;20475;-50
2022/08/17 08:59:36;;;;;;;10.52;5.57;;;29.20;1.00;;;;;;5008511;28;20380;-53
2022/08/17 09:02:17;;;;;;;12.98;8.30;;;28.80;1.00;;;;;;5014134;28;20929;-50
2022/08/17 09:05:33;;;;;;;10.40;6.78;;;28.60;1.00;;;;;;5027264;28;20375;-50
2022/08/17 09:08:08;;;;;;;12.60;6.82;;;28.70;1.00;;;;;;4994263;28;20399;-50
2022/08/17 09:10:58;;;;;;;11.37;6.50;;;28.70;1.00;;;;;;4982060;28;20395;-49
2022/08/17 09:13:36;;;;;;;15.00;8.50;;;28.50;1.00;;;;;;5018120;28;20399;-54
2022/08/17 09:16:10;;;;;;;12.77;8.20;;;28.30;1.00;;;;;;5026936;28;20468;-50
2022/08/17 09:18:42;;;;;;;18.15;8.30;;;28.30;1.00;;;;;;5024381;28;20751;-50
2022/08/17 09:21:13;;;;;;;12.45;8.30;;;28.20;1.00;;;;;;5026742;28;20470;-52
2022/08/17 09:24:11;;;;;;;15.00;8.67;;;28.30;1.00;;;;;;5027382;28;20387;-50
2022/08/17 09:26:52;;;;;;;10.63;8.00;;;28.30;1.00;;;;;;5008217;28;20473;-51
2022/08/17 09:29:23;;;;;;;10.30;7.65;;;28.10;1.00;;;;;;5025460;28;20396;-50
2022/08/17 09:31:54;;;;;;;11.95;8.23;;;27.80;1.00;;;;;;5027787;28;20399;-49
2022/08/17 09:34:48;;;;;;;12.30;8.25;;;27.70;1.00;;;;;;5027838;28;20785;-50
2022/08/17 09:37:44;;;;;;;11.05;6.80;;;27.60;1.00;;;;;;5013443;28;20410;-50
2022/08/17 09:40:22;;;;;;;17.20;8.10;;;27.40;1.00;;;;;;5015351;28;20404;-49
2022/08/17 09:43:26;;;;;;;14.50;7.10;;;;;;;;;;5019107;28;20415;-50
2022/08/17 09:45:57;;;;;;;15.75;7.40;;;27.00;1.00;;;;;;4940708;28;20482;-50
2022/08/17 09:48:38;;;;;;;12.48;6.63;;;;;;;;;;4988095;28;20402;-51
2022/08/17 09:51:15;;;;;;;12.20;6.10;;;;;;;;;;5025506;28;20379;-51
2022/08/17 09:53:41;;;;;;;15.65;6.00;;;;;;;;;;5026198;28;20383;-49
2022/08/17 09:56:23;;;;;;;13.30;6.13;;;;;;;;;;5027571;28;20393;-49
2022/08/17 09:58:49;;;;;;;9.20;5.60;;;;;;;;;;5023068;28;20402;-49
2022/08/17 10:01:36;;;;;;;11.35;5.90;;;;;;;;;;5023113;28;20405;-50
2022/08/17 10:04:02;;;;;;;16.02;6.20;;;;;;;;;;5022567;28;20407;-50
2022/08/17 10:06:31;;;;;;;9.88;5.20;;;;;;;;;;5024197;28;20524;-54
2022/08/17 10:09:06;;;;;;;11.50;5.00;;;;;;;;;;5027124;28;20434;-50
2022/08/17 10:14:36;;;;;;;9.33;5.53;;;;;;;;;;5025331;28;20391;-50
2022/08/17 10:17:08;;;;;;;9.80;5.00;;;;;;;;;;5026533;28;20740;-49
2022/08/17 10:19:37;;;;;;;11.17;5.10;;;;;;;;;;5021797;28;20384;-49
2022/08/17 10:27:50;;;;;;;11.98;5.22;;;;;;;;;;4991748;28;20461;-50
2022/08/17 10:30:18;;;;;;;12.90;5.10;;;;;;;;;;5025362;28;20389;-49
2022/08/17 10:32:53;;;;;;;10.73;4.83;;;;;;;;;;5026514;28;20390;-50
2022/08/17 10:35:24;;;;;;;12.05;5.28;;;;;;;;;;5023707;28;20414;-49
2022/08/17 10:37:50;;;;;;;12.13;5.70;;;;;;;;;;5022303;28;20470;-51
2022/08/17 10:40:31;;;;;;;11.10;5.72;;;;;;;;;;5024752;28;20482;-63
2022/08/17 10:43:17;;;;;;;10.25;5.47;;;;;;;;;;5030477;28;20387;-59
2022/08/17 10:45:50;;;;;;;12.13;5.50;;;;;;;;;;5028338;28;20419;-47
2022/08/17 10:48:35;;;;;;;11.45;5.40;;;;;;;;;;5030946;28;20390;-53
2022/08/17 10:51:07;;;;;;;11.50;4.55;;;;;;;;;;5027768;28;20400;-58
2022/08/17 10:53:42;;;;;;;9.02;4.47;;;;;;;;;;5028570;28;20395;-59
2022/08/17 10:56:11;;;;;;;9.55;4.55;;;;;;;;;;5030779;28;20402;-59
2022/08/17 10:58:48;;;;;;;7.97;4.30;;;;;;;;;;5030018;28;20475;-58
2022/08/17 11:01:14;;;;;;;9.77;5.10;;;;;;;;;;5030923;28;20501;-58
2022/08/17 11:03:52;;;;;;;8.70;4.80;;;;;;;;;;5030377;28;20380;-58
2022/08/17 11:06:23;;;;;;;9.65;4.80;;;;;;;;;;5028108;28;20947;-57
2022/08/17 11:09:12;;;;;;;11.57;4.88;;;;;;;;;;5030298;28;20371;-57
2022/08/17 11:11:37;;;;;;;10.45;5.53;;;;;;;;;;5029792;28;20428;-57
2022/08/17 11:14:33;;;;;;;9.10;4.50;;;;;;;;;;5030661;28;20405;-57
2022/08/17 11:17:22;;;;;;;10.00;5.00;;;;;;;;;;5011404;28;20459;-57
2022/08/17 11:19:52;;;;;;;10.35;5.30;;;;;;;;;;5023094;28;20754;-57
2022/08/17 11:22:36;;;;;;;10.13;4.97;;;;;;;;;;5030510;28;20809;-56
2022/08/17 11:25:16;;;;;;;11.88;5.15;;;;;;;;;;5027998;28;20421;-56
2022/08/17 11:27:43;;;;;;;11.20;5.53;;;;;;;;;;5026253;28;20419;-57
2022/08/17 11:30:35;;;;;;;11.87;5.50;;;;;;;;;;5030606;28;20875;-57
2022/08/17 11:33:21;;;;;;;12.40;5.40;;;;;;;;;;5027903;28;20783;-59
2022/08/17 11:35:50;;;;;;;9.73;5.47;;;;;;;;;;5028279;28;20565;-56
2022/08/17 11:38:34;;;;;;;10.57;5.63;;;;;;;;;;5030276;28;20395;-55
2022/08/17 11:41:18;;;;;;;11.05;6.38;;;;;;;;;;5028133;28;20681;-56
2022/08/17 11:43:54;;;;;;;11.32;6.20;;;;;;;;;;5027933;28;20461;-56
2022/08/17 11:46:20;;;;;;;12.40;5.80;;;;;;;;;;5030975;28;20432;-56
2022/08/17 11:51:55;;;;;;;11.57;6.50;;;;;;;;;;5016623;28;20959;-56
2022/08/17 11:54:33;;;;;;;12.83;6.20;;;;;;;;;;5029128;28;20752;-56
2022/08/17 11:57:01;;;;;;;13.40;6.10;;;;;;;;;;5030653;28;20391;-57
2022/08/17 11:59:33;;;;;;;13.00;6.00;;;;;;;;;;5030307;28;20401;-58
2022/08/17 12:02:00;;;;;;;13.65;6.30;;;;;;;;;;5030421;28;20445;-57
2022/08/17 12:04:34;;;;;;;11.15;6.50;;;;;;;;;;5030114;28;20379;-57
2022/08/17 12:07:20;;;;;;;11.05;6.30;;;;;;;;;;5030272;28;20458;-56
2022/08/17 12:09:49;;;;;;;9.70;5.80;;;;;;;;;;5029180;28;20998;-56
2022/08/17 12:12:28;;;;;;;11.90;6.30;;;;;;;;;;5028057;28;20718;-56
2022/08/17 12:14:58;;;;;;;12.90;6.93;;;;;;;;;;5029079;28;20398;-57
2022/08/17 12:17:28;;;;;;;13.10;6.70;;;;;;;;;;5026878;28;20399;-55
2022/08/17 12:19:55;;;;;;;12.82;6.65;;;;;;;;;;5027500;28;20747;-57
2022/08/17 12:22:32;;;;;;;12.63;6.77;;;;;;;;;;5026523;28;20459;-57
2022/08/17 12:25:11;;;;;;;13.45;6.40;;;;;;;;;;5027678;28;20407;-58
2022/08/17 12:27:43;;;;;;;14.02;7.20;;;;;;;;;;5024820;28;20883;-58
2022/08/17 12:30:11;;;;;;;12.98;6.70;;;;;;;;;;5028372;28;20375;-58
2022/08/17 12:32:39;;;;;;;16.73;7.28;;;;;;;;;;5023536;28;20395;-58
2022/08/17 12:35:21;;;;;;;12.60;6.95;;;;;;;;;;5028155;28;20468;-58
2022/08/17 12:37:49;;;;;;;15.07;7.07;;;;;;;;;;5026629;28;20471;-58
2022/08/17 12:40:22;;;;;;;12.00;6.40;;;;;;;;;;5028143;28;20414;-58
2022/08/17 12:42:57;;;;;;;13.55;7.00;;;;;;;;;;5018312;28;20418;-59
2022/08/17 12:45:28;;;;;;;11.68;6.30;;;;;;;;;;5026521;28;20490;-58
2022/08/17 12:48:26;;;;;;;11.73;6.30;;;;;;;;;;5028196;28;20392;-58
2022/08/17 12:50:58;;;;;;;12.55;6.63;;;;;;;;;;5007712;28;20430;-58
2022/08/17 12:53:26;;;;;;;14.75;6.97;;;;;;;;;;5023874;28;20407;-58
2022/08/17 12:55:53;;;;;;;17.02;6.97;;;;;;;;;;5026138;28;20485;-58
2022/08/17 12:58:20;;;;;;;14.20;7.28;;;;;;;;;;5025857;28;20384;-58
2022/08/17 13:00:50;;;;;;;13.02;6.80;;;;;;;;;;5025899;28;20394;-58
2022/08/17 13:03:20;;;;;;;12.40;6.30;;;;;;;;;;5026042;28;20897;-58
2022/08/17 13:05:52;;;;;;;12.73;6.60;;;;;;;;;;5026686;28;20422;-58
2022/08/17 13:08:19;;;;;;;11.73;7.40;;;;;;;;;;5025400;28;20828;-58
2022/08/17 13:10:56;;;;;;;11.48;6.38;;;;;;;;;;5017500;28;20483;-58
2022/08/17 13:13:25;;;;;;;12.82;6.30;;;;;;;;;;5025775;28;20932;-58
2022/08/17 13:15:53;;;;;;;11.18;6.10;;;;;;;;;;5027019;28;20447;-58
2022/08/17 13:18:37;;;;;;;13.77;5.55;;;;;;;;;;5027854;28;20898;-58
2022/08/17 13:21:04;;;;;;;11.68;6.30;;;;;;;;;;5027374;28;20367;-58
2022/08/17 13:23:31;;;;;;;12.00;6.13;;;;;;;;;;5026864;28;20409;-58
2022/08/17 13:26:04;;;;;;;10.82;6.15;;;;;;;;;;4962000;28;1791038;-57
2022/08/17 13:28:31;;;;;;;11.13;5.73;;;;;;;;;;5027763;28;20899;-58
2022/08/17 13:31:15;;;;;;;11.15;6.00;;;;;;;;;;5027835;28;20462;-58
2022/08/17 13:33:42;;;;;;;12.25;6.30;;;;;;;;;;5025783;28;20842;-58
2022/08/17 13:36:08;;;;;;;18.45;6.43;;;;;;;;;;5027856;28;20379;-58
2022/08/17 13:38:49;;;;;;;13.88;6.22;;;;;;;;;;5024406;28;20409;-57
2022/08/17 13:41:34;;;;;;;15.27;6.30;;;;;;;;;;5026890;28;20387;-58
2022/08/17 13:44:01;;;;;;;14.60;7.20;;;;;;;;;;5026201;28;20379;-58
2022/08/17 13:46:31;;;;;;;12.88;6.93;;;;;;;;;;5027640;28;20537;-58
2022/08/17 13:49:00;;;;;;;19.00;7.70;;;;;;;;;;5027859;28;20411;-58
2022/08/17 13:51:28;;;;;;;12.80;7.70;;;;;;;;;;5027503;28;20434;-58
2022/08/17 13:53:58;;;;;;;14.07;8.00;;;;;;;;;;5025544;28;20437;-58
2022/08/17 13:56:24;;;;;;;12.20;7.20;;;;;;;;;;5026249;28;20923;-58
2022/08/17 13:58:54;;;;;;;14.52;7.25;;;;;;;;;;5027562;28;20417;-58
2022/08/17 14:01:31;;;;;;;13.50;7.18;;;;;;;;;;5027276;28;20898;-59
2022/08/17 14:03:57;;;;;;;10.83;6.60;;;;;;;;;;5027967;28;20382;-58
2022/08/17 14:06:28;;;;;;;12.07;6.40;;;;;;;;;;5027990;28;20438;-58
2022/08/17 14:08:55;;;;;;;12.25;6.85;;;;;;;;;;5027766;28;20725;-58
2022/08/17 14:11:22;;;;;;;11.43;6.22;;;;;;;;;;5028086;28;20521;-59
2022/08/17 14:13:48;;;;;;;9.70;5.67;;;;;;;;;;5027111;28;20383;-59
2022/08/17 14:16:14;;;;;;;11.63;5.90;;;;;;;;;;5024362;28;20428;-59
2022/08/17 14:18:40;;;;;;;12.73;5.90;;;;;;;;;;5013618;28;20409;-59
2022/08/17 14:21:07;;;;;;;11.57;5.10;;;;;;;;;;5008066;28;20856;-58
2022/08/17 14:23:33;;;;;;;11.20;4.95;;;;;;;;;;5021473;28;20856;-58